createdAt,value
2022-10-11T00:00:08.414Z,20.85
2022-10-11T00:03:12.173Z,22.13
2022-10-11T00:06:15.300Z,21.60
2022-10-11T00:09:19.422Z,20.85
2022-10-11T00:12:23.131Z,19.30
2022-10-11T00:15:26.854Z,20.02
2022-10-11T00:18:30.452Z,17.50
2022-10-11T00:21:34.524Z,18.08
2022-10-11T00:24:38.164Z,19.63
2022-10-11T00:27:41.076Z,18.23
2022-10-11T00:30:44.791Z,17.10
2022-10-11T00:33:48.293Z,19.10
2022-10-11T00:36:51.279Z,21.17
2022-10-11T00:39:54.940Z,21.55
2022-10-11T00:42:58.726Z,22.43
2022-10-11T00:46:24.394Z,26.17
2022-10-11T00:49:56.471Z,26.75
2022-10-11T00:53:05.690Z,25.23
2022-10-11T00:56:18.052Z,20.80
2022-10-11T00:59:29.682Z,18.27
2022-10-11T01:02:32.698Z,18.08
2022-10-11T01:05:40.505Z,16.25
2022-10-11T01:08:45.052Z,17.83
2022-10-11T01:11:51.638Z,15.85
2022-10-11T01:15:06.456Z,14.70
2022-10-11T01:18:13.531Z,18.65
2022-10-11T01:21:50.142Z,18.00
2022-10-11T01:25:25.107Z,17.05
2022-10-11T01:28:53.082Z,17.00
2022-10-11T01:32:16.270Z,17.50
2022-10-11T01:35:37.666Z,16.15
2022-10-11T01:38:49.015Z,17.88
2022-10-11T01:41:56.277Z,16.55
2022-10-11T01:45:00.044Z,16.27
2022-10-11T01:48:09.170Z,17.63
2022-10-11T01:51:12.065Z,18.20
2022-10-11T01:54:25.206Z,16.58
2022-10-11T01:57:35.257Z,15.20
2022-10-11T02:00:59.506Z,15.50
2022-10-11T02:04:32.357Z,17.17
2022-10-11T02:07:45.310Z,17.48
2022-10-11T02:10:51.838Z,19.05
2022-10-11T02:14:06.815Z,18.70
2022-10-11T02:17:18.329Z,16.98
2022-10-11T02:20:25.085Z,17.57
2022-10-11T02:23:36.928Z,18.15
2022-10-11T02:26:44.605Z,19.63
2022-10-11T02:29:50.153Z,19.67
2022-10-11T02:32:54.599Z,19.45
2022-10-11T02:36:08.659Z,18.80
2022-10-11T02:39:32.366Z,18.05
2022-10-11T02:42:45.423Z,20.48
2022-10-11T02:45:56.794Z,20.77
2022-10-11T02:49:01.674Z,19.85
2022-10-11T02:52:07.399Z,20.40
2022-10-11T02:55:12.263Z,20.70
2022-10-11T02:58:15.595Z,20.33
2022-10-11T03:01:19.870Z,20.42
2022-10-11T03:04:23.607Z,21.42
2022-10-11T03:07:27.705Z,19.77
2022-10-11T03:10:31.575Z,18.80
2022-10-11T03:13:35.914Z,21.73
2022-10-11T03:16:39.704Z,16.77
2022-10-11T03:19:42.982Z,21.50
2022-10-11T03:22:46.956Z,16.50
2022-10-11T03:25:50.164Z,15.88
2022-10-11T03:28:54.077Z,15.02
2022-10-11T03:31:57.486Z,15.32
2022-10-11T03:35:01.097Z,15.65
2022-10-11T03:38:04.850Z,15.17
2022-10-11T03:41:08.136Z,13.82
2022-10-11T03:44:11.813Z,13.45
2022-10-11T03:47:15.398Z,12.35
2022-10-11T03:50:19.405Z,12.07
2022-10-11T03:53:23.470Z,12.77
2022-10-11T03:56:27.266Z,12.52
2022-10-11T03:59:31.724Z,11.73
2022-10-11T04:02:38.929Z,13.73
2022-10-11T04:05:42.776Z,13.85
2022-10-11T04:08:46.061Z,13.13
2022-10-11T04:11:49.792Z,13.40
2022-10-11T04:14:53.457Z,14.15
2022-10-11T04:17:56.484Z,14.23
2022-10-11T04:21:00.170Z,12.77
2022-10-11T04:24:03.476Z,13.57
2022-10-11T04:27:07.200Z,13.05
2022-10-11T04:30:11.764Z,13.00
2022-10-11T04:33:15.236Z,12.60
2022-10-11T04:36:19.149Z,14.18
2022-10-11T04:39:22.785Z,14.03
2022-10-11T04:42:26.101Z,12.90
2022-10-11T04:45:29.930Z,11.70
2022-10-11T04:48:33.972Z,10.18
2022-10-11T04:51:37.339Z,11.10
2022-10-11T04:54:41.287Z,11.50
2022-10-11T04:57:44.263Z,11.57
2022-10-11T05:00:47.642Z,11.40
2022-10-11T05:03:51.776Z,10.60
2022-10-11T05:06:56.536Z,10.80
2022-10-11T05:09:59.812Z,10.93
2022-10-11T05:13:03.524Z,10.50
2022-10-11T05:16:10.863Z,10.75
2022-10-11T05:19:15.475Z,10.35
2022-10-11T05:22:18.410Z,10.90
2022-10-11T05:25:22.224Z,10.37
2022-10-11T05:28:25.802Z,10.32
2022-10-11T05:31:29.473Z,9.68
2022-10-11T05:34:32.420Z,7.72
2022-10-11T05:37:35.909Z,7.93
2022-10-11T05:40:40.977Z,7.30
2022-10-11T05:43:45.387Z,7.53
2022-10-11T05:46:48.985Z,8.45
2022-10-11T05:49:52.645Z,8.43
2022-10-11T05:52:57.278Z,8.00
2022-10-11T05:56:01.023Z,7.57
2022-10-11T05:59:05.693Z,6.63
2022-10-11T06:02:17.983Z,7.15
2022-10-11T06:05:21.594Z,6.63
2022-10-11T06:08:24.636Z,5.70
2022-10-11T06:11:28.717Z,5.37
2022-10-11T06:14:32.086Z,5.45
2022-10-11T06:17:36.275Z,6.20
2022-10-11T06:20:39.895Z,6.10
2022-10-11T06:23:43.368Z,5.47
2022-10-11T06:26:46.368Z,6.07
2022-10-11T06:29:50.322Z,6.88
2022-10-11T06:32:53.681Z,6.68
2022-10-11T06:36:08.188Z,7.25
2022-10-11T06:39:12.276Z,6.43
2022-10-11T06:42:15.901Z,6.10
2022-10-11T06:45:18.809Z,6.18
2022-10-11T06:48:21.808Z,6.50
2022-10-11T06:51:26.134Z,5.20
2022-10-11T06:54:29.141Z,4.97
2022-10-11T06:57:33.042Z,5.07
2022-10-11T07:00:35.995Z,4.43
2022-10-11T07:03:39.984Z,4.57
2022-10-11T07:06:44.108Z,5.57
2022-10-11T07:09:47.542Z,5.00
2022-10-11T07:12:51.360Z,3.97
2022-10-11T07:15:54.432Z,4.30
2022-10-11T07:19:01.218Z,5.30
2022-10-11T07:22:05.177Z,4.28
2022-10-11T07:25:08.858Z,3.70
2022-10-11T07:28:13.123Z,3.63
2022-10-11T07:31:23.221Z,3.10
2022-10-11T07:34:26.977Z,3.00
2022-10-11T07:37:30.067Z,2.80
2022-10-11T07:40:34.695Z,2.85
2022-10-11T07:43:39.053Z,3.17
2022-10-11T07:46:42.832Z,3.53
2022-10-11T07:49:46.172Z,3.45
2022-10-11T07:52:49.140Z,4.32
2022-10-11T07:55:52.711Z,3.47
2022-10-11T07:58:58.285Z,2.90
2022-10-11T08:02:01.450Z,2.40
2022-10-11T08:05:05.017Z,2.88
2022-10-11T08:08:07.966Z,3.50
2022-10-11T08:11:11.643Z,3.67
2022-10-11T08:14:15.372Z,3.67
2022-10-11T08:17:18.990Z,2.70
2022-10-11T08:20:22.763Z,3.03
2022-10-11T08:23:26.675Z,2.50
2022-10-11T08:26:29.590Z,3.75
2022-10-11T08:29:36.344Z,3.70
2022-10-11T08:32:40.451Z,4.30
2022-10-11T08:35:43.346Z,3.67
2022-10-11T08:38:47.166Z,3.78
2022-10-11T08:42:02.278Z,3.00
2022-10-11T08:45:11.393Z,2.70
2022-10-11T08:48:30.126Z,3.63
2022-10-11T08:52:00.752Z,3.40
2022-10-11T08:55:22.284Z,3.95
2022-10-11T08:58:39.511Z,4.10
2022-10-11T09:01:53.443Z,3.63
2022-10-11T09:04:56.859Z,3.92
2022-10-11T09:08:15.742Z,2.80
2022-10-11T09:11:47.938Z,4.22
2022-10-11T09:15:12.233Z,4.65
2022-10-11T09:18:32.800Z,7.63
2022-10-11T09:21:55.344Z,6.97
2022-10-11T09:24:58.919Z,7.47
2022-10-11T09:28:20.650Z,7.72
2022-10-11T09:31:24.974Z,7.50
2022-10-11T09:34:34.460Z,7.33
2022-10-11T09:37:49.864Z,9.57
2022-10-11T09:41:22.125Z,11.20
2022-10-11T09:44:28.047Z,21.15
2022-10-11T09:47:35.151Z,18.83
2022-10-11T09:50:40.255Z,17.30
2022-10-11T09:54:01.304Z,27.25
2022-10-11T09:57:05.161Z,28.50
2022-10-11T10:00:21.751Z,26.73
2022-10-11T10:03:30.485Z,25.52
2022-10-11T10:06:35.450Z,26.50
2022-10-11T10:09:38.574Z,24.48
2022-10-11T10:12:41.753Z,26.50
2022-10-11T10:15:56.952Z,21.15
2022-10-11T10:19:05.675Z,24.58
2022-10-11T10:22:19.585Z,19.53
2022-10-11T10:25:31.062Z,18.33
2022-10-11T10:28:35.205Z,18.20
2022-10-11T10:32:13.468Z,22.08
2022-10-11T10:35:26.944Z,37.58
2022-10-11T10:38:34.745Z,48.80
2022-10-11T10:41:38.905Z,54.30
2022-10-11T10:44:44.006Z,52.67
2022-10-11T10:48:11.617Z,51.45
2022-10-11T10:51:37.790Z,56.78
2022-10-11T10:54:56.648Z,56.80
2022-10-11T10:58:30.131Z,71.70
2022-10-11T11:01:36.134Z,54.65
2022-10-11T11:04:40.124Z,48.70
2022-10-11T11:08:09.251Z,47.63
2022-10-11T11:11:24.104Z,52.03
2022-10-11T11:15:00.301Z,38.63
2022-10-11T11:18:09.245Z,41.30
2022-10-11T11:21:31.593Z,31.20
2022-10-11T11:24:41.061Z,34.15
2022-10-11T11:27:52.987Z,33.27
2022-10-11T11:31:04.325Z,28.52
2022-10-11T11:34:14.835Z,22.80
2022-10-11T11:37:40.949Z,23.63
2022-10-11T11:41:06.859Z,13.35
2022-10-11T11:44:27.317Z,10.87
2022-10-11T11:47:37.948Z,17.60
2022-10-11T11:50:46.335Z,13.57
2022-10-11T11:54:18.694Z,11.23
2022-10-11T11:57:54.213Z,11.10
2022-10-11T12:01:07.562Z,8.50
2022-10-11T12:04:31.455Z,7.93
2022-10-11T12:07:58.271Z,9.30
2022-10-11T12:11:02.948Z,9.35
2022-10-11T12:14:33.416Z,9.88
2022-10-11T12:18:16.786Z,8.93
2022-10-11T12:21:23.733Z,9.18
2022-10-11T12:24:47.243Z,8.02
2022-10-11T12:27:57.045Z,9.30
2022-10-11T12:31:09.291Z,9.95
2022-10-11T12:34:18.460Z,9.93
2022-10-11T12:37:21.639Z,15.63
2022-10-11T12:40:38.506Z,9.60
2022-10-11T12:43:52.113Z,10.02
2022-10-11T12:46:56.795Z,10.20
2022-10-11T12:50:29.214Z,8.47
2022-10-11T12:54:08.179Z,9.27
2022-10-11T12:57:46.582Z,7.82
2022-10-11T13:00:53.707Z,8.23
2022-10-11T13:04:13.105Z,8.82
2022-10-11T13:07:24.505Z,9.43
2022-10-11T13:10:33.811Z,8.60
2022-10-11T13:13:57.608Z,9.30
2022-10-11T13:17:04.534Z,138.75
2022-10-11T13:20:11.763Z,8.05
2022-10-11T13:23:25.675Z,8.87
2022-10-11T13:26:31.604Z,10.43
2022-10-11T13:29:51.020Z,10.40
2022-10-11T13:32:56.140Z,11.15
2022-10-11T13:36:05.812Z,37.28
2022-10-11T13:39:30.132Z,9.77
2022-10-11T13:42:35.014Z,10.05
2022-10-11T13:45:42.217Z,9.95
2022-10-11T13:48:46.284Z,12.05
2022-10-11T13:52:03.386Z,12.13
2022-10-11T13:55:12.066Z,8.70
2022-10-11T13:58:35.242Z,9.23
2022-10-11T14:01:46.008Z,4.95
2022-10-11T14:04:51.193Z,8.07
2022-10-11T14:07:54.987Z,4.72
2022-10-11T14:11:05.153Z,4.20
2022-10-11T14:14:29.380Z,3.22
2022-10-11T14:17:43.133Z,3.50
2022-10-11T14:20:46.889Z,3.35
2022-10-11T14:23:59.476Z,3.50
2022-10-11T14:27:05.981Z,3.20
2022-10-11T14:30:26.441Z,3.20
2022-10-11T14:33:30.766Z,3.28
2022-10-11T14:36:34.597Z,3.47
2022-10-11T14:39:38.350Z,4.18
2022-10-11T14:42:45.383Z,5.07
2022-10-11T14:45:49.926Z,5.80
2022-10-11T14:48:56.207Z,6.63
2022-10-11T14:52:00.786Z,7.47
2022-10-11T14:55:04.670Z,7.35
2022-10-11T14:58:09.587Z,7.23
2022-10-11T15:01:17.588Z,8.48
2022-10-11T15:04:26.475Z,8.52
2022-10-11T15:07:30.139Z,7.72
2022-10-11T15:10:41.420Z,5.65
2022-10-11T15:13:44.904Z,3.77
2022-10-11T15:16:49.043Z,2.95
2022-10-11T15:19:52.720Z,2.95
2022-10-11T15:22:57.228Z,2.78
2022-10-11T15:26:00.965Z,2.63
2022-10-11T15:29:05.305Z,2.67
2022-10-11T15:32:09.044Z,3.10
2022-10-11T15:35:12.815Z,2.85
2022-10-11T15:38:19.231Z,3.72
2022-10-11T15:41:24.832Z,3.40
2022-10-11T15:44:28.768Z,3.10
2022-10-11T15:47:32.686Z,2.47
2022-10-11T15:50:37.829Z,2.58
2022-10-11T15:53:41.491Z,2.40
2022-10-11T15:56:44.510Z,2.47
2022-10-11T15:59:48.484Z,2.87
2022-10-11T16:02:56.171Z,2.75
2022-10-11T16:06:05.224Z,2.97
2022-10-11T16:09:09.504Z,3.20
2022-10-11T16:12:13.203Z,2.47
2022-10-11T16:15:17.310Z,3.10
2022-10-11T16:18:23.220Z,2.85
2022-10-11T16:21:26.177Z,3.45
2022-10-11T16:24:30.252Z,2.80
2022-10-11T16:27:34.507Z,3.72
2022-10-11T16:30:45.794Z,3.03
2022-10-11T16:33:50.806Z,3.38
2022-10-11T16:36:54.486Z,3.63
2022-10-11T16:39:58.049Z,3.10
2022-10-11T16:43:07.715Z,3.70
2022-10-11T16:46:11.744Z,3.27
2022-10-11T16:49:22.828Z,2.95
2022-10-11T16:52:27.092Z,3.55
2022-10-11T16:55:31.106Z,3.10
2022-10-11T16:58:35.349Z,3.42
2022-10-11T17:01:40.077Z,3.23
2022-10-11T17:04:44.164Z,2.92
2022-10-11T17:07:48.209Z,2.80
2022-10-11T17:10:57.894Z,3.17
2022-10-11T17:14:02.618Z,3.25
2022-10-11T17:17:07.750Z,3.60
2022-10-11T17:20:11.990Z,3.38
2022-10-11T17:23:15.357Z,3.40
2022-10-11T17:26:28.096Z,3.10
2022-10-11T17:29:31.355Z,2.85
2022-10-11T17:32:35.289Z,2.47
2022-10-11T17:35:38.182Z,2.13
2022-10-11T17:38:41.191Z,2.83
2022-10-11T17:41:45.606Z,2.75
2022-10-11T17:44:49.693Z,2.83
2022-10-11T17:47:52.858Z,3.10
2022-10-11T17:50:56.898Z,2.78
2022-10-11T17:54:00.676Z,3.03
2022-10-11T17:57:04.880Z,2.80
2022-10-11T18:00:08.979Z,2.42
2022-10-11T18:03:13.017Z,1.97
2022-10-11T18:06:16.358Z,1.90
2022-10-11T18:09:20.961Z,2.15
2022-10-11T18:12:24.836Z,2.10
2022-10-11T18:15:33.280Z,1.88
2022-10-11T18:18:36.792Z,1.97
2022-10-11T18:21:41.284Z,2.05
2022-10-11T18:24:44.958Z,2.05
2022-10-11T18:27:48.999Z,2.03
2022-10-11T18:30:53.724Z,1.73
2022-10-11T18:33:57.597Z,1.80
2022-10-11T18:37:01.173Z,2.00
2022-10-11T18:40:05.759Z,1.92
2022-10-11T18:43:09.461Z,1.65
2022-10-11T18:46:15.294Z,1.98
2022-10-11T18:49:18.939Z,2.00
2022-10-11T18:52:22.885Z,2.30
2022-10-11T18:55:25.816Z,1.95
2022-10-11T18:58:33.954Z,1.92
2022-10-11T19:01:42.884Z,1.98
2022-10-11T19:04:46.431Z,2.40
2022-10-11T19:07:49.306Z,1.88
2022-10-11T19:10:53.329Z,1.88
2022-10-11T19:14:07.474Z,1.77
2022-10-11T19:17:13.192Z,1.73
2022-10-11T19:20:17.092Z,1.40
2022-10-11T19:23:21.397Z,1.45
2022-10-11T19:26:29.346Z,1.30
2022-10-11T19:29:34.189Z,1.30
2022-10-11T19:32:37.987Z,1.80
2022-10-11T19:35:43.366Z,1.60
2022-10-11T19:38:48.794Z,1.40
2022-10-11T19:41:52.105Z,1.40
2022-10-11T19:44:55.359Z,1.00
2022-10-11T19:47:58.925Z,1.20
2022-10-11T19:51:04.626Z,1.47
2022-10-11T19:54:11.982Z,1.40
2022-10-11T19:57:15.014Z,1.55
2022-10-11T20:00:18.815Z,1.02
2022-10-11T20:03:22.531Z,0.90
2022-10-11T20:06:28.536Z,1.13
2022-10-11T20:09:32.199Z,1.08
2022-10-11T20:12:36.398Z,0.90
2022-10-11T20:15:40.059Z,1.20
2022-10-11T20:18:45.084Z,1.00
2022-10-11T20:21:48.822Z,0.83
2022-10-11T20:24:52.860Z,1.40
2022-10-11T20:27:56.511Z,1.25
2022-10-11T20:31:01.187Z,1.20
2022-10-11T20:34:07.685Z,1.50
2022-10-11T20:37:11.974Z,1.80
2022-10-11T20:40:19.063Z,1.42
2022-10-11T20:43:23.086Z,1.70
2022-10-11T20:46:29.402Z,1.73
2022-10-11T20:49:32.804Z,1.90
2022-10-11T20:52:36.898Z,1.73
2022-10-11T20:55:40.901Z,2.17
2022-10-11T20:58:45.274Z,2.05
2022-10-11T21:01:49.348Z,1.70
2022-10-11T21:04:52.420Z,2.15
2022-10-11T21:07:56.412Z,1.87
2022-10-11T21:11:00.335Z,1.40
2022-10-11T21:14:05.783Z,1.70
2022-10-11T21:17:09.520Z,2.45
2022-10-11T21:20:13.788Z,2.00
2022-10-11T21:23:19.338Z,2.50
2022-10-11T21:26:23.329Z,2.78
2022-10-11T21:29:26.846Z,2.78
2022-10-11T21:32:30.900Z,2.90
2022-10-11T21:35:34.954Z,4.05
2022-10-11T21:38:38.468Z,3.20
2022-10-11T21:41:42.899Z,2.58
2022-10-11T21:44:46.842Z,2.47
2022-10-11T21:47:50.013Z,2.33
2022-10-11T21:50:55.487Z,2.22
2022-10-11T21:54:02.761Z,2.10
2022-10-11T21:57:06.824Z,1.70
2022-10-11T22:00:10.610Z,1.98
2022-10-11T22:03:16.673Z,1.60
2022-10-11T22:06:20.630Z,1.38
2022-10-11T22:09:24.642Z,1.70
2022-10-11T22:12:28.066Z,1.40
2022-10-11T22:15:35.570Z,1.60
2022-10-11T22:18:40.090Z,2.00
2022-10-11T22:21:45.230Z,1.33
2022-10-11T22:24:49.199Z,1.50
2022-10-11T22:27:53.155Z,1.63
2022-10-11T22:30:56.358Z,1.55
2022-10-11T22:34:01.326Z,1.27
2022-10-11T22:37:05.026Z,1.75
2022-10-11T22:40:09.659Z,2.17
2022-10-11T22:43:13.244Z,2.67
2022-10-11T22:46:17.573Z,2.35
2022-10-11T22:49:21.037Z,2.22
2022-10-11T22:52:24.588Z,2.75
2022-10-11T22:55:28.247Z,2.30
2022-10-11T22:58:31.679Z,1.48
2022-10-11T23:01:35.415Z,1.73
2022-10-11T23:04:39.501Z,1.52
2022-10-11T23:07:43.231Z,1.52
2022-10-11T23:10:47.306Z,1.90
2022-10-11T23:13:51.086Z,1.95
2022-10-11T23:16:54.264Z,1.50
2022-10-11T23:19:57.875Z,1.58
2022-10-11T23:23:01.954Z,2.10
2022-10-11T23:26:06.453Z,2.40
2022-10-11T23:29:10.496Z,2.22
2022-10-11T23:32:14.422Z,3.85
2022-10-11T23:35:18.511Z,2.60
2022-10-11T23:38:22.275Z,1.65
2022-10-11T23:41:28.975Z,2.03
2022-10-11T23:44:32.677Z,1.80
2022-10-11T23:47:36.849Z,2.65
2022-10-11T23:50:40.366Z,1.98
2022-10-11T23:53:44.368Z,2.78
2022-10-11T23:56:48.016Z,2.97
2022-10-11T23:59:51.973Z,2.08
